Pointe Du Bois, Canada
Current Conditions -  °F | °C
As of 4:00 PM on Monday 20 Oct 2014 (Local Time) from CYQK Reporting Station
Scattered Clouds Scattered Clouds  
Wind Chill: 46°   Ceiling: Unl
Heat Index: 46°   Visibility: 15mi
Dew Point: 36°   Wind: 2mph
Humidity: 66%   Direction: NA
Pressure: 30.06"   Gusts: NA
Location:  50.3°N, 95.55°W
Report Text: CYQK 202100Z VRB02KT 15SM SCT025 08/02 A3006 RMK SC3 SLP191
Loading
Personal Weather Stations






























Interactive Weather Map
Tropical Storm Tracking
New forecast layout! Learn more

10-Day Weather Forecast

Advertisements
Track Severe Weather on mobile